createdAt,value
2023-02-14T00:01:55.658Z,4.22
2023-02-14T00:04:24.350Z,4.23
2023-02-14T00:06:54.365Z,4.16
2023-02-14T00:09:24.322Z,4.07
2023-02-14T00:11:52.968Z,4.09
2023-02-14T00:14:39.151Z,4.11
2023-02-14T00:17:10.664Z,4.14
2023-02-14T00:19:39.653Z,3.98
2023-02-14T00:22:09.725Z,4.01
2023-02-14T00:24:38.488Z,3.95
2023-02-14T00:27:07.262Z,3.87
2023-02-14T00:29:36.153Z,3.86
2023-02-14T00:32:05.328Z,3.78
2023-02-14T00:34:36.605Z,3.76
2023-02-14T00:37:05.620Z,3.73
2023-02-14T00:39:35.752Z,3.58
2023-02-14T00:42:07.703Z,3.57
2023-02-14T00:44:36.339Z,3.54
2023-02-14T00:47:04.985Z,3.61
2023-02-14T00:49:33.701Z,3.64
2023-02-14T00:52:02.455Z,3.67
2023-02-14T00:54:34.040Z,3.73
2023-02-14T00:57:02.453Z,3.59
2023-02-14T00:59:31.009Z,3.57
2023-02-14T01:01:59.613Z,3.57
2023-02-14T01:04:28.263Z,3.51
2023-02-14T01:06:56.885Z,3.42
2023-02-14T01:09:25.388Z,3.34
2023-02-14T01:11:55.272Z,3.32
2023-02-14T01:14:23.940Z,3.37
2023-02-14T01:16:52.391Z,3.29
2023-02-14T01:19:21.024Z,3.35
2023-02-14T01:21:49.473Z,3.38
2023-02-14T01:24:18.049Z,3.31
2023-02-14T01:26:46.563Z,3.26
2023-02-14T01:29:16.591Z,3.26
2023-02-14T01:31:45.806Z,3.22
2023-02-14T01:34:14.314Z,3.13
2023-02-14T01:36:42.728Z,3.21
2023-02-14T01:39:15.512Z,3.18
2023-02-14T01:41:49.600Z,3.13
2023-02-14T01:45:03.532Z,3.09
2023-02-14T01:47:40.164Z,3.16
2023-02-14T01:50:14.948Z,3.06
2023-02-14T01:52:48.079Z,3.08
2023-02-14T01:55:20.708Z,3.10
2023-02-14T01:57:53.179Z,3.03
2023-02-14T02:00:41.229Z,3.01
2023-02-14T02:03:12.025Z,3.04
2023-02-14T02:05:48.806Z,2.97
2023-02-14T02:08:18.428Z,3.04
2023-02-14T02:10:46.909Z,3.00
2023-02-14T02:13:20.108Z,2.94
2023-02-14T02:16:03.644Z,2.89
2023-02-14T02:18:43.508Z,2.91
2023-02-14T02:22:02.533Z,2.86
2023-02-14T02:24:45.964Z,2.88
2023-02-14T02:27:38.613Z,2.84
2023-02-14T02:31:01.795Z,2.86
2023-02-14T02:34:37.167Z,2.80
2023-02-14T02:37:26.743Z,2.77
2023-02-14T02:40:18.819Z,3.32
2023-02-14T02:42:56.612Z,3.86
2023-02-14T02:45:35.616Z,4.13
2023-02-14T02:48:10.667Z,4.12
2023-02-14T02:51:12.564Z,4.02
2023-02-14T02:53:46.842Z,4.00
2023-02-14T02:56:38.451Z,3.77
2023-02-14T02:59:18.401Z,3.42
2023-02-14T03:02:04.951Z,3.21
2023-02-14T03:04:53.326Z,2.96
2023-02-14T03:07:39.451Z,2.75
2023-02-14T03:10:15.801Z,2.72
2023-02-14T03:13:32.481Z,2.73
2023-02-14T03:16:35.060Z,2.62
2023-02-14T03:19:34.186Z,2.63
2023-02-14T03:22:09.326Z,2.47
2023-02-14T03:24:49.199Z,2.40
2023-02-14T03:27:27.359Z,2.27
2023-02-14T03:30:04.523Z,2.29
2023-02-14T03:32:40.950Z,2.20
2023-02-14T03:35:19.718Z,2.18
2023-02-14T03:37:56.223Z,2.04
2023-02-14T03:40:31.029Z,1.92
2023-02-14T03:43:09.886Z,1.89
2023-02-14T03:45:44.568Z,1.81
2023-02-14T03:48:15.987Z,1.81
2023-02-14T03:50:47.809Z,1.82
2023-02-14T03:53:22.381Z,1.85
2023-02-14T03:56:01.232Z,1.77
2023-02-14T03:58:36.227Z,1.79
2023-02-14T04:01:12.748Z,1.75
2023-02-14T04:03:44.190Z,1.74
2023-02-14T04:06:12.778Z,1.65
2023-02-14T04:08:41.192Z,1.63
2023-02-14T04:11:09.758Z,1.71
2023-02-14T04:13:40.214Z,1.69
2023-02-14T04:16:09.379Z,1.66
2023-02-14T04:18:55.279Z,1.76
2023-02-14T04:21:23.814Z,1.65
2023-02-14T04:23:52.585Z,1.61
2023-02-14T04:26:21.187Z,1.52
2023-02-14T04:28:51.035Z,1.42
2023-02-14T04:31:19.589Z,1.43
2023-02-14T04:33:48.241Z,1.30
2023-02-14T04:36:16.860Z,1.26
2023-02-14T04:38:45.222Z,1.22
2023-02-14T04:41:13.823Z,1.15
2023-02-14T04:43:42.451Z,1.04
2023-02-14T04:46:12.379Z,0.92
2023-02-14T04:48:40.948Z,0.90
2023-02-14T04:51:09.500Z,0.96
2023-02-14T04:53:40.350Z,1.00
2023-02-14T04:56:09.389Z,0.95
2023-02-14T04:58:38.599Z,1.08
2023-02-14T05:01:07.300Z,0.95
2023-02-14T05:03:37.346Z,1.01
2023-02-14T05:06:06.351Z,0.99
2023-02-14T05:08:35.059Z,1.00
2023-02-14T05:11:03.631Z,1.04
2023-02-14T05:13:32.220Z,1.01
2023-02-14T05:16:01.482Z,1.10
2023-02-14T05:18:29.995Z,1.12
2023-02-14T05:21:00.378Z,1.16
2023-02-14T05:23:33.028Z,1.16
2023-02-14T05:26:01.508Z,1.21
2023-02-14T05:28:29.980Z,1.10
2023-02-14T05:30:59.225Z,1.22
2023-02-14T05:33:28.431Z,1.06
2023-02-14T05:35:56.868Z,1.09
2023-02-14T05:38:26.777Z,1.05
2023-02-14T05:40:55.444Z,1.29
2023-02-14T05:43:23.893Z,1.27
2023-02-14T05:45:52.383Z,1.24
2023-02-14T05:48:21.057Z,1.28
2023-02-14T05:50:49.745Z,1.40
2023-02-14T05:53:19.008Z,1.50
2023-02-14T05:55:49.079Z,1.60
2023-02-14T05:58:17.502Z,1.64
2023-02-14T06:00:46.047Z,1.50
2023-02-14T06:03:14.526Z,1.50
2023-02-14T06:05:42.959Z,1.53
2023-02-14T06:08:11.512Z,1.62
2023-02-14T06:10:39.952Z,1.59
2023-02-14T06:13:10.723Z,1.69
2023-02-14T06:15:39.687Z,1.70
2023-02-14T06:18:08.399Z,1.53
2023-02-14T06:20:37.224Z,1.66
2023-02-14T06:23:05.822Z,1.75
2023-02-14T06:25:34.711Z,1.78
2023-02-14T06:28:03.315Z,1.85
2023-02-14T06:30:33.314Z,1.96
2023-02-14T06:33:02.040Z,1.93
2023-02-14T06:35:30.573Z,1.78
2023-02-14T06:37:58.963Z,1.80
2023-02-14T06:40:27.299Z,1.89
2023-02-14T06:42:55.691Z,1.87
2023-02-14T06:45:24.110Z,1.95
2023-02-14T06:47:53.825Z,1.94
2023-02-14T06:50:22.461Z,2.02
2023-02-14T06:52:51.471Z,1.99
2023-02-14T06:55:20.308Z,1.95
2023-02-14T06:57:48.666Z,1.92
2023-02-14T07:00:18.334Z,2.05
2023-02-14T07:02:47.058Z,1.98
2023-02-14T07:05:19.164Z,2.13
2023-02-14T07:07:47.720Z,2.00
2023-02-14T07:10:17.042Z,1.90
2023-02-14T07:12:45.728Z,1.88
2023-02-14T07:15:15.601Z,2.03
2023-02-14T07:17:44.431Z,1.97
2023-02-14T07:20:15.896Z,2.01
2023-02-14T07:22:44.311Z,1.94
2023-02-14T07:25:15.186Z,1.83
2023-02-14T07:27:45.600Z,1.99
2023-02-14T07:30:15.497Z,2.17
2023-02-14T07:32:43.920Z,1.88
2023-02-14T07:35:14.942Z,1.77
2023-02-14T07:37:44.999Z,1.75
2023-02-14T07:40:15.334Z,2.29
2023-02-14T07:42:44.229Z,2.30
2023-02-14T07:45:21.672Z,2.29
2023-02-14T07:47:51.779Z,2.37
2023-02-14T07:50:21.317Z,2.31
2023-02-14T07:52:51.503Z,2.08
2023-02-14T07:55:20.432Z,2.00
2023-02-14T07:57:49.750Z,2.04
2023-02-14T08:00:19.735Z,2.07
2023-02-14T08:02:49.511Z,2.21
2023-02-14T08:05:18.549Z,2.21
2023-02-14T08:07:47.358Z,2.18
2023-02-14T08:10:17.508Z,2.28
2023-02-14T08:13:01.300Z,2.18
2023-02-14T08:15:49.920Z,2.29
2023-02-14T08:18:19.293Z,2.23
2023-02-14T08:20:49.868Z,2.22
2023-02-14T08:23:20.323Z,2.20
2023-02-14T08:25:52.891Z,2.23
2023-02-14T08:28:22.058Z,2.28
2023-02-14T08:30:51.111Z,2.31
2023-02-14T08:33:19.858Z,2.43
2023-02-14T08:35:48.452Z,2.18
2023-02-14T08:38:16.957Z,2.25
2023-02-14T08:40:45.463Z,2.31
2023-02-14T08:43:15.673Z,2.54
2023-02-14T08:45:44.176Z,2.52
2023-02-14T08:48:13.946Z,2.41
2023-02-14T08:50:42.800Z,2.50
2023-02-14T08:53:13.361Z,2.59
2023-02-14T08:55:42.234Z,2.67
2023-02-14T08:58:10.721Z,2.58
2023-02-14T09:00:40.755Z,2.53
2023-02-14T09:03:10.665Z,2.45
2023-02-14T09:05:39.245Z,2.37
2023-02-14T09:08:07.855Z,2.30
2023-02-14T09:10:36.300Z,2.30
2023-02-14T09:13:04.780Z,2.45
2023-02-14T09:15:33.203Z,2.20
2023-02-14T09:18:03.094Z,2.24
2023-02-14T09:20:31.553Z,2.37
2023-02-14T09:22:59.967Z,2.59
2023-02-14T09:25:28.435Z,2.66
2023-02-14T09:27:56.800Z,2.82
2023-02-14T09:30:25.236Z,2.88
2023-02-14T09:32:54.860Z,2.56
2023-02-14T09:35:42.034Z,2.27
2023-02-14T09:38:18.446Z,2.40
2023-02-14T09:40:48.339Z,2.38
2023-02-14T09:43:24.528Z,2.30
2023-02-14T09:45:56.654Z,2.21
2023-02-14T09:48:30.630Z,2.14
2023-02-14T09:51:04.946Z,2.36
2023-02-14T09:53:37.229Z,2.33
2023-02-14T09:56:17.501Z,2.20
2023-02-14T09:58:53.221Z,2.26
2023-02-14T10:01:28.157Z,2.38
2023-02-14T10:04:19.426Z,2.53
2023-02-14T10:06:52.783Z,2.64
2023-02-14T10:09:37.654Z,2.74
2023-02-14T10:12:11.868Z,2.92
2023-02-14T10:14:41.427Z,2.97
2023-02-14T10:17:16.632Z,2.89
2023-02-14T10:19:49.955Z,3.00
2023-02-14T10:22:23.242Z,2.96
2023-02-14T10:24:57.462Z,3.07
2023-02-14T10:27:34.582Z,3.01
2023-02-14T10:30:03.725Z,3.18
2023-02-14T10:32:41.369Z,3.13
2023-02-14T10:35:25.910Z,3.35
2023-02-14T10:38:10.260Z,3.49
2023-02-14T10:41:22.146Z,3.47
2023-02-14T10:44:02.747Z,3.40
2023-02-14T10:46:40.018Z,3.41
2023-02-14T10:49:27.163Z,3.33
2023-02-14T10:52:04.319Z,3.32
2023-02-14T10:54:40.770Z,3.40
2023-02-14T10:57:16.105Z,3.53
2023-02-14T10:59:52.662Z,3.17
2023-02-14T11:02:26.399Z,2.87
2023-02-14T11:04:56.241Z,2.88
2023-02-14T11:07:24.817Z,2.83
2023-02-14T11:09:54.617Z,2.75
2023-02-14T11:12:38.413Z,2.84
2023-02-14T11:15:22.056Z,3.09
2023-02-14T11:17:51.985Z,3.11
2023-02-14T11:20:31.399Z,3.25
2023-02-14T11:23:00.103Z,3.32
2023-02-14T11:25:31.801Z,3.41
2023-02-14T11:28:04.270Z,3.34
2023-02-14T11:30:37.080Z,3.21
2023-02-14T11:33:06.209Z,3.38
2023-02-14T11:35:35.060Z,3.71
2023-02-14T11:38:06.268Z,3.67
2023-02-14T11:40:38.624Z,3.83
2023-02-14T11:43:21.404Z,3.99
2023-02-14T11:45:50.639Z,3.95
2023-02-14T11:48:36.812Z,4.02
2023-02-14T11:51:10.194Z,4.17
2023-02-14T11:53:46.556Z,4.23
2023-02-14T11:56:18.042Z,4.16
2023-02-14T11:58:52.489Z,4.32
2023-02-14T12:01:26.301Z,4.22
2023-02-14T12:03:57.727Z,4.28
2023-02-14T12:06:28.123Z,4.28
2023-02-14T12:09:25.993Z,4.28
2023-02-14T12:11:58.908Z,4.20
2023-02-14T12:14:31.504Z,4.28
2023-02-14T12:17:07.103Z,4.18
2023-02-14T12:19:45.765Z,4.15
2023-02-14T12:22:18.608Z,4.27
2023-02-14T12:25:00.111Z,4.26
2023-02-14T12:27:35.628Z,3.94
2023-02-14T12:30:14.295Z,3.95
2023-02-14T12:32:50.300Z,3.85
2023-02-14T12:35:22.332Z,3.89
2023-02-14T12:38:05.171Z,3.77
2023-02-14T12:40:46.718Z,3.93
2023-02-14T12:43:48.036Z,3.87
2023-02-14T12:46:31.426Z,3.83
2023-02-14T12:49:57.697Z,3.80
2023-02-14T12:52:54.212Z,3.69
2023-02-14T12:55:42.129Z,3.98
2023-02-14T12:58:27.215Z,4.03
2023-02-14T13:01:21.709Z,4.33
2023-02-14T13:04:41.044Z,4.52
2023-02-14T13:07:22.473Z,4.69
2023-02-14T13:09:59.726Z,4.80
2023-02-14T13:12:38.291Z,4.87
2023-02-14T13:15:21.946Z,4.91
2023-02-14T13:17:54.874Z,5.06
2023-02-14T13:20:41.694Z,5.06
2023-02-14T13:23:17.549Z,4.89
2023-02-14T13:25:52.935Z,4.89
2023-02-14T13:28:22.033Z,4.83
2023-02-14T13:30:51.775Z,4.63
2023-02-14T13:33:35.072Z,4.54
2023-02-14T13:36:08.250Z,4.67
2023-02-14T13:38:45.245Z,4.90
2023-02-14T13:41:15.250Z,4.77
2023-02-14T13:43:56.285Z,4.66
2023-02-14T13:46:50.228Z,4.70
2023-02-14T13:49:37.901Z,4.64
2023-02-14T13:52:07.819Z,4.72
2023-02-14T13:54:44.198Z,4.84
2023-02-14T13:57:34.060Z,4.83
2023-02-14T14:00:41.746Z,4.73
2023-02-14T14:03:16.875Z,4.89
2023-02-14T14:06:07.657Z,5.05
2023-02-14T14:08:49.386Z,5.12
2023-02-14T14:11:57.217Z,5.28
2023-02-14T14:14:36.506Z,5.28
2023-02-14T14:17:25.974Z,5.35
2023-02-14T14:19:57.941Z,5.31
2023-02-14T14:22:27.910Z,5.27
2023-02-14T14:25:02.609Z,5.27
2023-02-14T14:27:34.922Z,5.31
2023-02-14T14:30:08.361Z,5.19
2023-02-14T14:32:39.634Z,5.26
2023-02-14T14:35:20.663Z,5.23
2023-02-14T14:37:52.129Z,5.14
2023-02-14T14:40:28.806Z,5.09
2023-02-14T14:43:03.149Z,5.05
2023-02-14T14:45:32.700Z,5.12
2023-02-14T14:48:09.167Z,5.16
2023-02-14T14:50:39.940Z,5.26
2023-02-14T14:53:15.708Z,5.18
2023-02-14T14:55:51.944Z,5.32
2023-02-14T14:58:37.456Z,5.35
2023-02-14T15:01:07.501Z,5.43
2023-02-14T15:03:36.113Z,5.48
2023-02-14T15:06:19.056Z,5.52
2023-02-14T15:08:49.253Z,5.46
2023-02-14T15:11:35.902Z,5.38
2023-02-14T15:14:06.459Z,5.42
2023-02-14T15:16:42.378Z,5.30
2023-02-14T15:19:17.265Z,5.26
2023-02-14T15:21:47.504Z,5.28
2023-02-14T15:24:18.569Z,5.34
2023-02-14T15:26:50.148Z,5.40
2023-02-14T15:29:25.862Z,5.45
2023-02-14T15:31:55.419Z,5.44
2023-02-14T15:34:26.704Z,5.46
2023-02-14T15:37:03.515Z,5.47
2023-02-14T15:39:39.345Z,5.47
2023-02-14T15:42:25.875Z,5.47
2023-02-14T15:45:19.258Z,5.49
2023-02-14T15:47:50.287Z,5.49
2023-02-14T15:50:24.205Z,5.37
2023-02-14T15:52:57.434Z,5.37
2023-02-14T15:55:28.883Z,5.31
2023-02-14T15:58:01.883Z,5.36
2023-02-14T16:00:31.723Z,5.33
2023-02-14T16:03:03.855Z,5.30
2023-02-14T16:05:32.307Z,5.20
2023-02-14T16:08:05.176Z,5.15
2023-02-14T16:10:35.142Z,5.06
2023-02-14T16:13:08.657Z,5.12
2023-02-14T16:15:38.840Z,5.00
2023-02-14T16:18:20.647Z,4.64
2023-02-14T16:20:51.298Z,4.47
2023-02-14T16:23:25.388Z,4.43
2023-02-14T16:25:57.345Z,4.36
2023-02-14T16:28:30.483Z,4.35
2023-02-14T16:31:03.184Z,4.23
2023-02-14T16:33:35.808Z,4.00
2023-02-14T16:36:09.476Z,3.96
2023-02-14T16:38:44.566Z,3.84
2023-02-14T16:41:21.700Z,3.79
2023-02-14T16:43:51.089Z,3.89
2023-02-14T16:46:22.351Z,3.86
2023-02-14T16:48:52.455Z,3.68
2023-02-14T16:51:23.859Z,3.59
2023-02-14T16:53:55.150Z,3.51
2023-02-14T16:56:29.878Z,3.41
2023-02-14T16:58:58.693Z,3.43
2023-02-14T17:01:27.385Z,3.41
2023-02-14T17:03:55.742Z,3.37
2023-02-14T17:06:28.686Z,3.33
2023-02-14T17:09:00.914Z,3.40
2023-02-14T17:11:32.526Z,3.42
2023-02-14T17:14:01.181Z,3.37
2023-02-14T17:16:32.412Z,3.37
2023-02-14T17:19:03.320Z,3.33
2023-02-14T17:21:32.034Z,3.33
2023-02-14T17:24:01.857Z,3.38
2023-02-14T17:26:30.248Z,3.41
2023-02-14T17:28:58.654Z,3.42
2023-02-14T17:31:28.629Z,3.41
2023-02-14T17:33:57.698Z,3.41
2023-02-14T17:36:26.482Z,3.33
2023-02-14T17:38:55.885Z,3.32
2023-02-14T17:41:29.265Z,3.33
2023-02-14T17:44:00.358Z,3.29
2023-02-14T17:46:30.210Z,3.29
2023-02-14T17:49:01.834Z,3.29
2023-02-14T17:51:30.904Z,3.20
2023-02-14T17:53:59.441Z,3.29
2023-02-14T17:56:29.352Z,3.26
2023-02-14T17:58:57.808Z,3.23
2023-02-14T18:01:31.560Z,3.21
2023-02-14T18:04:00.022Z,3.15
2023-02-14T18:06:28.478Z,3.17
2023-02-14T18:08:57.724Z,3.19
2023-02-14T18:11:30.010Z,3.25
2023-02-14T18:13:59.745Z,3.28
2023-02-14T18:16:28.653Z,3.16
2023-02-14T18:18:57.134Z,3.18
2023-02-14T18:21:25.538Z,3.21
2023-02-14T18:23:53.913Z,3.21
2023-02-14T18:26:22.324Z,3.20
2023-02-14T18:28:52.081Z,3.25
2023-02-14T18:31:21.193Z,3.31
2023-02-14T18:33:51.350Z,3.23
2023-02-14T18:36:24.168Z,3.05
2023-02-14T18:38:52.724Z,2.82
2023-02-14T18:41:22.372Z,2.81
2023-02-14T18:43:52.662Z,2.76
2023-02-14T18:46:23.866Z,2.73
2023-02-14T18:48:53.036Z,2.75
2023-02-14T18:51:23.983Z,2.60
2023-02-14T18:53:52.908Z,2.66
2023-02-14T18:56:23.995Z,2.58
2023-02-14T18:58:59.276Z,2.44
2023-02-14T19:01:30.562Z,2.30
2023-02-14T19:04:00.695Z,2.46
2023-02-14T19:06:32.370Z,2.60
2023-02-14T19:09:01.502Z,2.60
2023-02-14T19:11:33.882Z,2.46
2023-02-14T19:14:09.401Z,2.56
2023-02-14T19:16:42.229Z,2.66
2023-02-14T19:19:11.386Z,2.72
2023-02-14T19:21:39.715Z,2.67
2023-02-14T19:24:09.400Z,2.73
2023-02-14T19:26:40.923Z,2.69
2023-02-14T19:29:14.280Z,2.52
2023-02-14T19:31:45.114Z,2.39
2023-02-14T19:34:19.198Z,2.41
2023-02-14T19:36:48.970Z,2.56
2023-02-14T19:39:19.081Z,2.64
2023-02-14T19:41:48.829Z,2.69
2023-02-14T19:44:19.935Z,2.69
2023-02-14T19:46:49.037Z,2.69
2023-02-14T19:49:20.081Z,2.73
2023-02-14T19:51:51.305Z,2.78
2023-02-14T19:54:21.926Z,2.67
2023-02-14T19:56:50.451Z,2.65
2023-02-14T19:59:22.721Z,2.58
2023-02-14T20:01:52.645Z,2.39
2023-02-14T20:04:23.866Z,2.26
2023-02-14T20:06:53.169Z,2.28
2023-02-14T20:09:24.018Z,2.18
2023-02-14T20:11:54.613Z,2.21
2023-02-14T20:14:26.603Z,2.30
2023-02-14T20:16:57.695Z,2.50
2023-02-14T20:19:29.497Z,2.59
2023-02-14T20:21:57.996Z,2.58
2023-02-14T20:24:30.388Z,2.42
2023-02-14T20:27:00.484Z,2.40
2023-02-14T20:29:30.546Z,2.40
2023-02-14T20:32:03.653Z,2.38
2023-02-14T20:34:32.289Z,2.38
2023-02-14T20:37:00.786Z,2.31
2023-02-14T20:39:32.226Z,2.26
2023-02-14T20:42:01.106Z,2.23
2023-02-14T20:44:31.210Z,2.31
2023-02-14T20:46:59.950Z,2.40
2023-02-14T20:49:31.313Z,2.41
2023-02-14T20:52:00.687Z,2.52
2023-02-14T20:54:31.003Z,2.47
2023-02-14T20:56:59.431Z,2.23
2023-02-14T20:59:28.814Z,2.21
2023-02-14T21:02:00.071Z,2.25
2023-02-14T21:04:29.895Z,2.29
2023-02-14T21:07:00.248Z,2.38
2023-02-14T21:09:28.849Z,2.57
2023-02-14T21:11:58.457Z,2.61
2023-02-14T21:14:27.153Z,2.60
2023-02-14T21:16:55.641Z,2.60
2023-02-14T21:19:27.847Z,2.66
2023-02-14T21:21:56.366Z,2.47
2023-02-14T21:24:25.185Z,2.48
2023-02-14T21:26:53.587Z,2.32
2023-02-14T21:29:22.456Z,2.33
2023-02-14T21:31:50.996Z,2.46
2023-02-14T21:34:19.776Z,2.59
2023-02-14T21:36:49.619Z,2.48
2023-02-14T21:39:19.077Z,2.58
2023-02-14T21:41:47.512Z,2.36
2023-02-14T21:44:40.329Z,2.28
2023-02-14T21:47:07.853Z,2.24
2023-02-14T21:49:53.793Z,2.19
2023-02-14T21:52:23.654Z,2.01
2023-02-14T21:54:52.633Z,2.09
2023-02-14T21:57:21.135Z,1.80
2023-02-14T21:59:49.643Z,1.83
2023-02-14T22:02:18.213Z,1.75
2023-02-14T22:04:47.138Z,1.78
2023-02-14T22:07:17.786Z,1.87
2023-02-14T22:09:47.664Z,2.05
2023-02-14T22:12:16.179Z,2.15
2023-02-14T22:14:44.562Z,2.08
2023-02-14T22:17:12.997Z,2.12
2023-02-14T22:19:41.577Z,2.09
2023-02-14T22:22:10.103Z,2.27
2023-02-14T22:24:38.804Z,2.34
2023-02-14T22:27:08.715Z,2.35
2023-02-14T22:29:37.376Z,2.16
2023-02-14T22:32:06.580Z,2.08
2023-02-14T22:34:35.475Z,2.10
2023-02-14T22:37:03.985Z,1.90
2023-02-14T22:39:32.466Z,1.98
2023-02-14T22:42:05.391Z,2.35
2023-02-14T22:44:35.196Z,2.27
2023-02-14T22:47:03.678Z,2.43
2023-02-14T22:49:32.250Z,2.21
2023-02-14T22:52:00.606Z,2.25
2023-02-14T22:54:29.258Z,2.00
2023-02-14T22:56:57.590Z,2.04
2023-02-14T22:59:28.314Z,2.07
2023-02-14T23:01:58.169Z,2.14
2023-02-14T23:04:29.420Z,2.31
2023-02-14T23:06:57.954Z,2.28
2023-02-14T23:09:26.705Z,2.31
2023-02-14T23:11:55.173Z,2.24
2023-02-14T23:14:41.005Z,2.26
2023-02-14T23:17:34.406Z,2.34
2023-02-14T23:20:20.481Z,2.25
2023-02-14T23:22:49.373Z,2.37
2023-02-14T23:25:17.942Z,2.24
2023-02-14T23:27:48.409Z,2.26
2023-02-14T23:30:19.541Z,2.16
2023-02-14T23:32:49.370Z,2.15
2023-02-14T23:35:18.088Z,2.16
2023-02-14T23:37:46.637Z,2.03
2023-02-14T23:40:15.243Z,1.93
2023-02-14T23:42:43.787Z,1.87
2023-02-14T23:45:29.654Z,1.70
2023-02-14T23:48:03.609Z,1.70
2023-02-14T23:50:32.406Z,1.68
2023-02-14T23:53:01.231Z,1.78
2023-02-14T23:55:29.763Z,1.82
2023-02-14T23:57:58.178Z,1.83
